sensor_id;sensor_type;location;lat;lon;timestamp;pressure;altitude;pressure_sealevel;temperature;humidity
26083;BME280;13848;49.018;12.078;2022-07-01T00:00:05;97315.25;;;22.56;66.86
26083;BME280;13848;49.018;12.078;2022-07-01T00:02:31;97315.66;;;22.50;67.34
26083;BME280;13848;49.018;12.078;2022-07-01T00:04:57;97302.66;;;22.28;67.80
26083;BME280;13848;49.018;12.078;2022-07-01T00:07:23;97315.44;;;22.46;67.55
26083;BME280;13848;49.018;12.078;2022-07-01T00:09:49;97329.69;;;22.48;67.79
26083;BME280;13848;49.018;12.078;2022-07-01T00:12:15;97338.44;;;22.50;67.58
26083;BME280;13848;49.018;12.078;2022-07-01T00:14:42;97345.03;;;22.49;66.88
26083;BME280;13848;49.018;12.078;2022-07-01T00:17:08;97345.16;;;22.58;66.56
26083;BME280;13848;49.018;12.078;2022-07-01T00:19:34;97334.97;;;22.58;65.87
26083;BME280;13848;49.018;12.078;2022-07-01T00:22:00;97337.31;;;22.51;66.82
26083;BME280;13848;49.018;12.078;2022-07-01T00:24:26;97323.78;;;22.55;66.12
26083;BME280;13848;49.018;12.078;2022-07-01T00:26:52;97331.03;;;22.51;66.64
26083;BME280;13848;49.018;12.078;2022-07-01T00:29:18;97327.16;;;22.52;66.26
26083;BME280;13848;49.018;12.078;2022-07-01T00:31:45;97335.59;;;22.55;65.70
26083;BME280;13848;49.018;12.078;2022-07-01T00:34:11;97344.34;;;22.57;65.68
26083;BME280;13848;49.018;12.078;2022-07-01T00:36:37;97358.56;;;22.60;65.63
26083;BME280;13848;49.018;12.078;2022-07-01T00:39:03;97356.63;;;22.60;65.80
26083;BME280;13848;49.018;12.078;2022-07-01T00:41:29;97372.22;;;22.65;65.40
26083;BME280;13848;49.018;12.078;2022-07-01T00:43:55;97379.75;;;22.59;64.87
26083;BME280;13848;49.018;12.078;2022-07-01T00:46:21;97394.00;;;22.75;63.40
26083;BME280;13848;49.018;12.078;2022-07-01T00:48:48;97388.88;;;22.82;61.74
26083;BME280;13848;49.018;12.078;2022-07-01T00:51:14;97383.81;;;22.75;60.97
26083;BME280;13848;49.018;12.078;2022-07-01T00:53:40;97391.56;;;22.60;61.19
26083;BME280;13848;49.018;12.078;2022-07-01T00:56:06;97384.75;;;22.57;60.53
26083;BME280;13848;49.018;12.078;2022-07-01T00:58:32;97389.94;;;22.58;59.72
26083;BME280;13848;49.018;12.078;2022-07-01T01:00:58;97384.94;;;22.61;59.86
26083;BME280;13848;49.018;12.078;2022-07-01T01:03:25;97391.94;;;22.67;58.54
26083;BME280;13848;49.018;12.078;2022-07-01T01:05:53;97396.34;;;22.68;57.87
26083;BME280;13848;49.018;12.078;2022-07-01T01:08:19;97388.50;;;22.47;57.76
26083;BME280;13848;49.018;12.078;2022-07-01T01:10:45;97410.69;;;22.51;57.38
26083;BME280;13848;49.018;12.078;2022-07-01T01:13:11;97413.22;;;22.47;57.08
26083;BME280;13848;49.018;12.078;2022-07-01T01:15:37;97415.97;;;22.47;57.17
26083;BME280;13848;49.018;12.078;2022-07-01T01:18:03;97413.72;;;22.49;56.71
26083;BME280;13848;49.018;12.078;2022-07-01T01:20:32;97408.88;;;22.46;56.92
26083;BME280;13848;49.018;12.078;2022-07-01T01:22:58;97409.47;;;22.43;56.40
26083;BME280;13848;49.018;12.078;2022-07-01T01:25:24;97407.25;;;22.45;56.87
26083;BME280;13848;49.018;12.078;2022-07-01T01:27:50;97399.28;;;22.44;56.92
26083;BME280;13848;49.018;12.078;2022-07-01T01:30:16;97401.22;;;22.43;56.02
26083;BME280;13848;49.018;12.078;2022-07-01T01:32:42;97412.75;;;22.45;56.56
26083;BME280;13848;49.018;12.078;2022-07-01T01:35:09;97412.84;;;22.40;55.93
26083;BME280;13848;49.018;12.078;2022-07-01T01:37:36;97409.69;;;22.33;56.54
26083;BME280;13848;49.018;12.078;2022-07-01T01:40:03;97409.88;;;22.37;55.87
26083;BME280;13848;49.018;12.078;2022-07-01T01:42:29;97422.69;;;22.41;55.70
26083;BME280;13848;49.018;12.078;2022-07-01T01:44:55;97421.38;;;22.39;55.76
26083;BME280;13848;49.018;12.078;2022-07-01T01:47:21;97422.69;;;22.41;55.56
26083;BME280;13848;49.018;12.078;2022-07-01T01:49:47;97417.41;;;22.31;56.03
26083;BME280;13848;49.018;12.078;2022-07-01T01:52:13;97423.31;;;22.38;56.01
26083;BME280;13848;49.018;12.078;2022-07-01T01:54:40;97429.81;;;22.42;55.30
26083;BME280;13848;49.018;12.078;2022-07-01T01:57:06;97442.56;;;22.38;56.05
26083;BME280;13848;49.018;12.078;2022-07-01T01:59:32;97433.06;;;22.30;55.91
26083;BME280;13848;49.018;12.078;2022-07-01T02:01:58;97443.16;;;22.35;55.83
26083;BME280;13848;49.018;12.078;2022-07-01T02:04:24;97438.97;;;22.38;56.06
26083;BME280;13848;49.018;12.078;2022-07-01T02:06:50;97436.22;;;22.24;56.18
26083;BME280;13848;49.018;12.078;2022-07-01T02:09:16;97433.06;;;22.17;56.62
26083;BME280;13848;49.018;12.078;2022-07-01T02:11:43;97431.44;;;22.16;56.34
26083;BME280;13848;49.018;12.078;2022-07-01T02:14:09;97427.97;;;22.24;55.75
26083;BME280;13848;49.018;12.078;2022-07-01T02:16:35;97426.09;;;22.05;56.65
26083;BME280;13848;49.018;12.078;2022-07-01T02:19:01;97418.34;;;22.08;56.52
26083;BME280;13848;49.018;12.078;2022-07-01T02:21:27;97418.75;;;22.01;56.83
26083;BME280;13848;49.018;12.078;2022-07-01T02:23:53;97423.91;;;21.89;57.40
26083;BME280;13848;49.018;12.078;2022-07-01T02:26:19;97432.97;;;21.89;57.40
26083;BME280;13848;49.018;12.078;2022-07-01T02:28:46;97434.69;;;21.85;57.60
26083;BME280;13848;49.018;12.078;2022-07-01T02:31:12;97427.56;;;21.84;57.81
26083;BME280;13848;49.018;12.078;2022-07-01T02:33:38;97428.59;;;21.88;57.70
26083;BME280;13848;49.018;12.078;2022-07-01T02:36:04;97433.34;;;21.83;57.46
26083;BME280;13848;49.018;12.078;2022-07-01T02:38:30;97440.25;;;21.80;57.72
26083;BME280;13848;49.018;12.078;2022-07-01T02:40:57;97457.75;;;21.84;57.58
26083;BME280;13848;49.018;12.078;2022-07-01T02:43:23;97463.66;;;21.91;57.10
26083;BME280;13848;49.018;12.078;2022-07-01T02:45:50;97469.59;;;21.98;56.81
26083;BME280;13848;49.018;12.078;2022-07-01T02:48:16;97471.72;;;21.88;57.38
26083;BME280;13848;49.018;12.078;2022-07-01T02:50:42;97478.31;;;21.87;57.86
26083;BME280;13848;49.018;12.078;2022-07-01T02:53:08;97477.69;;;21.90;57.02
26083;BME280;13848;49.018;12.078;2022-07-01T02:55:34;97490.25;;;21.77;57.61
26083;BME280;13848;49.018;12.078;2022-07-01T02:58:00;97499.81;;;21.79;57.53
26083;BME280;13848;49.018;12.078;2022-07-01T03:00:26;97509.56;;;21.72;57.77
26083;BME280;13848;49.018;12.078;2022-07-01T03:02:53;97513.84;;;21.78;56.95
26083;BME280;13848;49.018;12.078;2022-07-01T03:05:19;97518.00;;;21.57;57.95
26083;BME280;13848;49.018;12.078;2022-07-01T03:07:45;97524.69;;;21.69;58.04
26083;BME280;13848;49.018;12.078;2022-07-01T03:10:11;97520.59;;;21.67;57.92
26083;BME280;13848;49.018;12.078;2022-07-01T03:12:36;97531.44;;;21.58;58.02
26083;BME280;13848;49.018;12.078;2022-07-01T03:15:05;97524.09;;;21.54;58.22
26083;BME280;13848;49.018;12.078;2022-07-01T03:17:33;97529.34;;;21.50;58.29
26083;BME280;13848;49.018;12.078;2022-07-01T03:20:02;97524.91;;;21.54;57.98
26083;BME280;13848;49.018;12.078;2022-07-01T03:22:30;97530.72;;;21.52;57.96
26083;BME280;13848;49.018;12.078;2022-07-01T03:24:57;97520.75;;;21.57;57.12
26083;BME280;13848;49.018;12.078;2022-07-01T03:27:24;97524.84;;;21.59;56.54
26083;BME280;13848;49.018;12.078;2022-07-01T03:29:50;97530.56;;;21.63;56.90
26083;BME280;13848;49.018;12.078;2022-07-01T03:32:17;97527.97;;;21.52;57.17
26083;BME280;13848;49.018;12.078;2022-07-01T03:34:44;97525.88;;;21.44;57.45
26083;BME280;13848;49.018;12.078;2022-07-01T03:37:13;97527.06;;;21.38;57.35
26083;BME280;13848;49.018;12.078;2022-07-01T03:39:40;97544.56;;;21.42;57.61
26083;BME280;13848;49.018;12.078;2022-07-01T03:42:07;97553.28;;;21.44;57.52
26083;BME280;13848;49.018;12.078;2022-07-01T03:44:34;97562.06;;;21.46;56.84
26083;BME280;13848;49.018;12.078;2022-07-01T03:47:00;97561.59;;;21.39;57.51
26083;BME280;13848;49.018;12.078;2022-07-01T03:49:26;97566.38;;;21.29;57.67
26083;BME280;13848;49.018;12.078;2022-07-01T03:51:52;97574.88;;;21.27;57.69
26083;BME280;13848;49.018;12.078;2022-07-01T03:54:20;97567.69;;;21.36;57.25
26083;BME280;13848;49.018;12.078;2022-07-01T03:56:46;97579.22;;;21.33;57.54
26083;BME280;13848;49.018;12.078;2022-07-01T03:59:12;97590.00;;;21.30;57.36
26083;BME280;13848;49.018;12.078;2022-07-01T04:01:37;97601.03;;;21.43;57.00
26083;BME280;13848;49.018;12.078;2022-07-01T04:04:04;97598.59;;;21.42;57.11
26083;BME280;13848;49.018;12.078;2022-07-01T04:06:30;97583.84;;;21.14;58.00
26083;BME280;13848;49.018;12.078;2022-07-01T04:08:56;97585.25;;;21.35;57.11
26083;BME280;13848;49.018;12.078;2022-07-01T04:11:24;97597.59;;;21.33;57.55
26083;BME280;13848;49.018;12.078;2022-07-01T04:13:50;97605.25;;;21.36;56.76
26083;BME280;13848;49.018;12.078;2022-07-01T04:16:16;97609.63;;;21.13;57.60
26083;BME280;13848;49.018;12.078;2022-07-01T04:18:42;97595.91;;;21.13;57.69
26083;BME280;13848;49.018;12.078;2022-07-01T04:21:08;97599.88;;;21.25;57.52
26083;BME280;13848;49.018;12.078;2022-07-01T04:23:34;97595.19;;;21.26;56.86
26083;BME280;13848;49.018;12.078;2022-07-01T04:26:01;97603.28;;;21.17;57.65
26083;BME280;13848;49.018;12.078;2022-07-01T04:28:28;97600.94;;;21.06;58.19
26083;BME280;13848;49.018;12.078;2022-07-01T04:30:54;97609.38;;;21.09;57.97
26083;BME280;13848;49.018;12.078;2022-07-01T04:33:20;97602.56;;;21.07;58.16
26083;BME280;13848;49.018;12.078;2022-07-01T04:35:46;97604.72;;;21.10;58.00
26083;BME280;13848;49.018;12.078;2022-07-01T04:38:12;97618.56;;;20.99;58.41
26083;BME280;13848;49.018;12.078;2022-07-01T04:40:38;97622.88;;;21.06;58.42
26083;BME280;13848;49.018;12.078;2022-07-01T04:43:04;97625.38;;;21.02;58.14
26083;BME280;13848;49.018;12.078;2022-07-01T04:45:31;97630.78;;;21.07;57.91
26083;BME280;13848;49.018;12.078;2022-07-01T04:47:57;97640.34;;;21.10;57.59
26083;BME280;13848;49.018;12.078;2022-07-01T04:50:23;97630.78;;;21.07;57.61
26083;BME280;13848;49.018;12.078;2022-07-01T04:52:49;97628.88;;;21.08;57.92
26083;BME280;13848;49.018;12.078;2022-07-01T04:55:15;97631.03;;;21.11;57.83
26083;BME280;13848;49.018;12.078;2022-07-01T04:57:40;97625.59;;;21.06;57.73
26083;BME280;13848;49.018;12.078;2022-07-01T05:00:08;97615.25;;;20.97;57.85
26083;BME280;13848;49.018;12.078;2022-07-01T05:02:35;97623.94;;;21.05;57.94
26083;BME280;13848;49.018;12.078;2022-07-01T05:05:01;97621.81;;;21.02;58.09
26083;BME280;13848;49.018;12.078;2022-07-01T05:07:27;97622.53;;;21.12;57.84
26083;BME280;13848;49.018;12.078;2022-07-01T05:09:54;97625.31;;;21.07;58.22
26083;BME280;13848;49.018;12.078;2022-07-01T05:12:20;97623.63;;;21.11;58.14
26083;BME280;13848;49.018;12.078;2022-07-01T05:14:45;97631.63;;;21.32;57.63
26083;BME280;13848;49.018;12.078;2022-07-01T05:17:11;97633.19;;;21.14;58.60
26083;BME280;13848;49.018;12.078;2022-07-01T05:19:39;97637.19;;;21.21;57.90
26083;BME280;13848;49.018;12.078;2022-07-01T05:22:05;97644.66;;;21.16;58.22
26083;BME280;13848;49.018;12.078;2022-07-01T05:24:32;97655.31;;;21.22;58.10
26083;BME280;13848;49.018;12.078;2022-07-01T05:26:59;97646.53;;;21.20;58.46
26083;BME280;13848;49.018;12.078;2022-07-01T05:29:25;97639.44;;;21.19;58.31
26083;BME280;13848;49.018;12.078;2022-07-01T05:31:51;97636.94;;;21.23;58.37
26083;BME280;13848;49.018;12.078;2022-07-01T05:34:17;97639.72;;;21.18;58.09
26083;BME280;13848;49.018;12.078;2022-07-01T05:36:45;97641.31;;;21.24;58.11
26083;BME280;13848;49.018;12.078;2022-07-01T05:39:11;97631.88;;;21.35;57.65
26083;BME280;13848;49.018;12.078;2022-07-01T05:41:37;97645.53;;;21.40;57.77
26083;BME280;13848;49.018;12.078;2022-07-01T05:44:03;97658.09;;;21.46;56.63
26083;BME280;13848;49.018;12.078;2022-07-01T05:46:29;97661.72;;;21.61;56.58
26083;BME280;13848;49.018;12.078;2022-07-01T05:48:55;97658.03;;;21.51;57.46
26083;BME280;13848;49.018;12.078;2022-07-01T05:51:21;97650.81;;;21.56;56.77
26083;BME280;13848;49.018;12.078;2022-07-01T05:53:48;97658.19;;;21.79;56.70
26083;BME280;13848;49.018;12.078;2022-07-01T05:56:14;97665.91;;;21.77;56.39
26083;BME280;13848;49.018;12.078;2022-07-01T05:58:40;97662.97;;;21.92;55.98
26083;BME280;13848;49.018;12.078;2022-07-01T06:01:06;97662.56;;;21.80;55.66
26083;BME280;13848;49.018;12.078;2022-07-01T06:03:32;97661.47;;;21.81;56.62
26083;BME280;13848;49.018;12.078;2022-07-01T06:05:58;97662.56;;;21.80;56.34
26083;BME280;13848;49.018;12.078;2022-07-01T06:08:24;97653.69;;;21.88;56.01
26083;BME280;13848;49.018;12.078;2022-07-01T06:10:51;97655.19;;;21.81;56.73
26083;BME280;13848;49.018;12.078;2022-07-01T06:13:17;97655.38;;;21.84;56.46
26083;BME280;13848;49.018;12.078;2022-07-01T06:15:43;97648.00;;;22.03;55.85
26083;BME280;13848;49.018;12.078;2022-07-01T06:18:09;97650.34;;;21.91;56.48
26083;BME280;13848;49.018;12.078;2022-07-01T06:20:35;97664.38;;;21.90;56.25
26083;BME280;13848;49.018;12.078;2022-07-01T06:23:01;97679.34;;;21.78;56.44
26083;BME280;13848;49.018;12.078;2022-07-01T06:25:26;97687.28;;;21.80;56.20
26083;BME280;13848;49.018;12.078;2022-07-01T06:27:54;97696.47;;;21.70;56.53
26083;BME280;13848;49.018;12.078;2022-07-01T06:30:20;97685.63;;;21.79;57.29
26083;BME280;13848;49.018;12.078;2022-07-01T06:32:46;97675.44;;;22.03;57.00
26083;BME280;13848;49.018;12.078;2022-07-01T06:35:12;97679.44;;;21.92;56.16
26083;BME280;13848;49.018;12.078;2022-07-01T06:37:38;97685.63;;;21.79;57.04
26083;BME280;13848;49.018;12.078;2022-07-01T06:40:05;97687.16;;;21.90;56.67
26083;BME280;13848;49.018;12.078;2022-07-01T06:42:31;97690.50;;;21.87;56.45
26083;BME280;13848;49.018;12.078;2022-07-01T06:44:59;97694.41;;;21.81;56.88
26083;BME280;13848;49.018;12.078;2022-07-01T06:47:26;97699.16;;;21.75;56.76
26083;BME280;13848;49.018;12.078;2022-07-01T06:49:52;97702.09;;;21.79;56.89
26083;BME280;13848;49.018;12.078;2022-07-01T06:52:18;97694.66;;;21.61;56.79
26083;BME280;13848;49.018;12.078;2022-07-01T06:54:44;97715.28;;;21.58;56.73
26083;BME280;13848;49.018;12.078;2022-07-01T06:57:10;97716.78;;;21.69;57.02
26083;BME280;13848;49.018;12.078;2022-07-01T06:59:36;97718.94;;;21.48;57.02
26083;BME280;13848;49.018;12.078;2022-07-01T07:02:03;97710.06;;;21.57;57.19
26083;BME280;13848;49.018;12.078;2022-07-01T07:04:29;97707.44;;;21.70;57.79
26083;BME280;13848;49.018;12.078;2022-07-01T07:06:55;97716.09;;;21.59;56.77
26083;BME280;13848;49.018;12.078;2022-07-01T07:09:21;97719.91;;;21.63;56.99
26083;BME280;13848;49.018;12.078;2022-07-01T07:11:47;97737.59;;;21.51;57.65
26083;BME280;13848;49.018;12.078;2022-07-01T07:14:13;97743.13;;;21.46;57.67
26083;BME280;13848;49.018;12.078;2022-07-01T07:16:39;97758.13;;;21.25;57.64
26083;BME280;13848;49.018;12.078;2022-07-01T07:19:06;97749.19;;;21.09;58.05
26083;BME280;13848;49.018;12.078;2022-07-01T07:21:32;97749.13;;;20.85;59.09
26083;BME280;13848;49.018;12.078;2022-07-01T07:23:58;97753.09;;;20.69;60.01
26083;BME280;13848;49.018;12.078;2022-07-01T07:26:24;97748.72;;;20.68;59.71
26083;BME280;13848;49.018;12.078;2022-07-01T07:28:50;97723.59;;;20.61;59.61
26083;BME280;13848;49.018;12.078;2022-07-01T07:31:16;97757.53;;;20.65;59.93
26083;BME280;13848;49.018;12.078;2022-07-01T07:33:42;97756.19;;;20.96;58.88
26083;BME280;13848;49.018;12.078;2022-07-01T07:36:10;97775.56;;;20.71;59.41
26083;BME280;13848;49.018;12.078;2022-07-01T07:38:36;97782.22;;;20.60;59.74
26083;BME280;13848;49.018;12.078;2022-07-01T07:41:02;97776.34;;;20.77;59.00
26083;BME280;13848;49.018;12.078;2022-07-01T07:43:28;97779.25;;;20.90;58.14
26083;BME280;13848;49.018;12.078;2022-07-01T07:45:54;97778.75;;;20.83;58.54
26083;BME280;13848;49.018;12.078;2022-07-01T07:48:20;97783.25;;;20.69;58.73
26083;BME280;13848;49.018;12.078;2022-07-01T07:50:46;97787.13;;;20.63;58.80
26083;BME280;13848;49.018;12.078;2022-07-01T07:53:13;97790.78;;;20.43;58.73
26083;BME280;13848;49.018;12.078;2022-07-01T07:55:39;97790.19;;;20.56;58.75
26083;BME280;13848;49.018;12.078;2022-07-01T07:58:05;97796.53;;;20.46;59.09
26083;BME280;13848;49.018;12.078;2022-07-01T08:00:32;97802.53;;;20.54;59.02
26083;BME280;13848;49.018;12.078;2022-07-01T08:02:58;97799.81;;;20.43;59.06
26083;BME280;13848;49.018;12.078;2022-07-01T08:05:24;97792.72;;;20.42;59.51
26083;BME280;13848;49.018;12.078;2022-07-01T08:07:50;97794.94;;;20.80;58.54
26083;BME280;13848;49.018;12.078;2022-07-01T08:10:18;97799.28;;;20.86;58.13
26083;BME280;13848;49.018;12.078;2022-07-01T08:12:45;97800.75;;;20.73;58.06
26083;BME280;13848;49.018;12.078;2022-07-01T08:15:11;97799.13;;;20.72;58.03
26083;BME280;13848;49.018;12.078;2022-07-01T08:17:37;97814.91;;;20.41;59.36
26083;BME280;13848;49.018;12.078;2022-07-01T08:20:04;97823.38;;;20.39;59.41
26083;BME280;13848;49.018;12.078;2022-07-01T08:22:30;97825.59;;;20.48;58.41
26083;BME280;13848;49.018;12.078;2022-07-01T08:24:56;97835.41;;;20.54;58.34
26083;BME280;13848;49.018;12.078;2022-07-01T08:27:24;97845.28;;;20.44;58.77
26083;BME280;13848;49.018;12.078;2022-07-01T08:29:50;97844.56;;;20.24;59.57
26083;BME280;13848;49.018;12.078;2022-07-01T08:32:15;97837.06;;;20.44;58.36
26083;BME280;13848;49.018;12.078;2022-07-01T08:34:42;97838.03;;;20.69;57.78
26083;BME280;13848;49.018;12.078;2022-07-01T08:37:08;97831.28;;;20.51;58.11
26083;BME280;13848;49.018;12.078;2022-07-01T08:39:34;97822.75;;;20.58;57.88
26083;BME280;13848;49.018;12.078;2022-07-01T08:42:00;97825.31;;;20.88;57.46
26083;BME280;13848;49.018;12.078;2022-07-01T08:44:27;97830.91;;;21.12;56.69
26083;BME280;13848;49.018;12.078;2022-07-01T08:46:53;97815.59;;;21.40;56.55
26083;BME280;13848;49.018;12.078;2022-07-01T08:49:21;97832.00;;;21.74;55.39
26083;BME280;13848;49.018;12.078;2022-07-01T08:51:47;97824.00;;;21.49;55.67
26083;BME280;13848;49.018;12.078;2022-07-01T08:54:13;97829.66;;;21.63;55.71
26083;BME280;13848;49.018;12.078;2022-07-01T08:56:39;97828.69;;;21.48;55.07
26083;BME280;13848;49.018;12.078;2022-07-01T08:59:05;97832.16;;;21.30;56.06
26083;BME280;13848;49.018;12.078;2022-07-01T09:01:33;97827.41;;;21.41;55.55
26083;BME280;13848;49.018;12.078;2022-07-01T09:04:13;97830.41;;;21.39;55.82
26083;BME280;13848;49.018;12.078;2022-07-01T09:06:39;97838.03;;;21.47;55.64
26083;BME280;13848;49.018;12.078;2022-07-01T09:09:10;97838.72;;;21.34;56.27
26083;BME280;13848;49.018;12.078;2022-07-01T09:11:37;97847.94;;;21.43;55.56
26083;BME280;13848;49.018;12.078;2022-07-01T09:14:06;97843.31;;;21.68;55.70
26083;BME280;13848;49.018;12.078;2022-07-01T09:16:40;97856.03;;;21.59;54.96
26083;BME280;13848;49.018;12.078;2022-07-01T09:19:06;97846.44;;;21.56;54.67
26083;BME280;13848;49.018;12.078;2022-07-01T09:21:33;97862.91;;;21.56;55.45
26083;BME280;13848;49.018;12.078;2022-07-01T09:24:02;97862.59;;;21.63;55.43
26083;BME280;13848;49.018;12.078;2022-07-01T09:26:29;97864.88;;;21.50;55.40
26083;BME280;13848;49.018;12.078;2022-07-01T09:28:55;97871.72;;;21.53;54.56
26083;BME280;13848;49.018;12.078;2022-07-01T09:31:22;97875.63;;;21.47;54.57
26083;BME280;13848;49.018;12.078;2022-07-01T09:34:03;97871.31;;;21.36;55.25
26083;BME280;13848;49.018;12.078;2022-07-01T09:36:29;97872.59;;;21.09;55.52
26083;BME280;13848;49.018;12.078;2022-07-01T09:38:55;97881.47;;;20.96;56.38
26083;BME280;13848;49.018;12.078;2022-07-01T09:41:23;97886.91;;;21.01;56.28
26083;BME280;13848;49.018;12.078;2022-07-01T09:43:49;97886.97;;;20.91;56.65
26083;BME280;13848;49.018;12.078;2022-07-01T09:46:15;97888.84;;;21.01;56.51
26083;BME280;13848;49.018;12.078;2022-07-01T09:48:45;97893.84;;;20.88;56.79
26083;BME280;13848;49.018;12.078;2022-07-01T09:51:13;97888.50;;;20.63;57.06
26083;BME280;13848;49.018;12.078;2022-07-01T09:53:40;97877.88;;;20.46;57.94
26083;BME280;13848;49.018;12.078;2022-07-01T09:56:06;97878.06;;;20.70;57.14
26083;BME280;13848;49.018;12.078;2022-07-01T09:58:32;97897.78;;;20.67;57.05
26083;BME280;13848;49.018;12.078;2022-07-01T10:00:58;97890.03;;;20.84;56.44
26083;BME280;13848;49.018;12.078;2022-07-01T10:03:26;97891.31;;;20.53;57.21
26083;BME280;13848;49.018;12.078;2022-07-01T10:05:54;97905.38;;;20.80;56.30
26083;BME280;13848;49.018;12.078;2022-07-01T10:08:46;97903.78;;;20.74;56.96
26083;BME280;13848;49.018;12.078;2022-07-01T10:11:43;97898.09;;;20.60;56.80
26083;BME280;13848;49.018;12.078;2022-07-01T10:14:13;97900.69;;;20.16;57.84
26083;BME280;13848;49.018;12.078;2022-07-01T10:16:41;97898.53;;;20.08;58.37
26083;BME280;13848;49.018;12.078;2022-07-01T10:19:24;97886.47;;;20.14;58.38
26083;BME280;13848;49.018;12.078;2022-07-01T10:21:51;97886.53;;;19.88;58.36
26083;BME280;13848;49.018;12.078;2022-07-01T10:24:19;97887.09;;;19.80;59.16
26083;BME280;13848;49.018;12.078;2022-07-01T10:26:45;97887.09;;;19.96;58.37
26083;BME280;13848;49.018;12.078;2022-07-01T10:29:26;97896.94;;;19.97;58.75
26083;BME280;13848;49.018;12.078;2022-07-01T10:31:52;97902.09;;;20.03;58.43
26083;BME280;13848;49.018;12.078;2022-07-01T10:34:19;97884.84;;;20.13;58.25
26083;BME280;13848;49.018;12.078;2022-07-01T10:37:00;97895.78;;;20.18;57.94
26083;BME280;13848;49.018;12.078;2022-07-01T10:39:28;97916.03;;;20.12;59.04
26083;BME280;13848;49.018;12.078;2022-07-01T10:41:59;97915.19;;;20.22;58.15
26083;BME280;13848;49.018;12.078;2022-07-01T10:44:27;97908.91;;;20.11;58.50
26083;BME280;13848;49.018;12.078;2022-07-01T10:46:54;97897.44;;;20.04;58.95
26083;BME280;13848;49.018;12.078;2022-07-01T10:49:52;97894.03;;;20.42;57.02
26083;BME280;13848;49.018;12.078;2022-07-01T10:52:18;97911.28;;;20.53;56.56
26083;BME280;13848;49.018;12.078;2022-07-01T10:54:48;97923.31;;;20.57;55.86
26083;BME280;13848;49.018;12.078;2022-07-01T10:57:25;97928.03;;;20.36;57.07
26083;BME280;13848;49.018;12.078;2022-07-01T10:59:53;97941.16;;;20.50;56.41
26083;BME280;13848;49.018;12.078;2022-07-01T11:02:21;97938.91;;;20.62;55.67
26083;BME280;13848;49.018;12.078;2022-07-01T11:04:47;97938.91;;;20.62;55.08
26083;BME280;13848;49.018;12.078;2022-07-01T11:07:14;97942.47;;;20.62;55.05
26083;BME280;13848;49.018;12.078;2022-07-01T11:09:40;97944.97;;;20.59;55.08
26083;BME280;13848;49.018;12.078;2022-07-01T11:12:08;97941.13;;;20.60;54.61
26083;BME280;13848;49.018;12.078;2022-07-01T11:14:34;97939.72;;;20.62;54.74
26083;BME280;13848;49.018;12.078;2022-07-01T11:17:01;97938.19;;;20.31;55.19
26083;BME280;13848;49.018;12.078;2022-07-01T11:19:27;97941.75;;;20.26;55.42
26083;BME280;13848;49.018;12.078;2022-07-01T11:21:54;97937.88;;;20.42;54.25
26083;BME280;13848;49.018;12.078;2022-07-01T11:24:21;97940.34;;;20.49;54.48
26083;BME280;13848;49.018;12.078;2022-07-01T11:26:47;97937.91;;;20.32;55.22
26083;BME280;13848;49.018;12.078;2022-07-01T11:29:23;97935.75;;;20.19;55.73
26083;BME280;13848;49.018;12.078;2022-07-01T11:31:50;97935.19;;;20.22;55.77
26083;BME280;13848;49.018;12.078;2022-07-01T11:34:16;97928.06;;;20.26;55.81
26083;BME280;13848;49.018;12.078;2022-07-01T11:36:43;97927.47;;;20.50;54.33
26083;BME280;13848;49.018;12.078;2022-07-01T11:39:10;97935.09;;;20.58;53.79
26083;BME280;13848;49.018;12.078;2022-07-01T11:41:36;97946.63;;;20.44;53.48
26083;BME280;13848;49.018;12.078;2022-07-01T11:44:02;97945.03;;;20.23;54.27
26083;BME280;13848;49.018;12.078;2022-07-01T11:46:30;97937.69;;;20.08;54.76
26083;BME280;13848;49.018;12.078;2022-07-01T11:48:56;97946.13;;;20.22;54.27
26083;BME280;13848;49.018;12.078;2022-07-01T11:51:23;97948.84;;;20.32;53.68
26083;BME280;13848;49.018;12.078;2022-07-01T11:53:52;97957.06;;;20.32;53.44
26083;BME280;13848;49.018;12.078;2022-07-01T11:56:28;97958.69;;;20.38;52.63
26083;BME280;13848;49.018;12.078;2022-07-01T11:58:55;97954.06;;;20.29;53.27
26083;BME280;13848;49.018;12.078;2022-07-01T12:01:23;97969.72;;;20.08;53.25
26083;BME280;13848;49.018;12.078;2022-07-01T12:03:51;97958.25;;;20.01;53.89
26083;BME280;13848;49.018;12.078;2022-07-01T12:06:18;97962.31;;;20.03;53.80
26083;BME280;13848;49.018;12.078;2022-07-01T12:08:45;97967.81;;;19.93;53.77
26083;BME280;13848;49.018;12.078;2022-07-01T12:11:12;97959.06;;;19.91;54.15
26083;BME280;13848;49.018;12.078;2022-07-01T12:13:38;97954.41;;;19.91;53.70
26083;BME280;13848;49.018;12.078;2022-07-01T12:16:08;97962.09;;;19.95;53.62
26083;BME280;13848;49.018;12.078;2022-07-01T12:18:34;97968.63;;;19.93;53.62
26083;BME280;13848;49.018;12.078;2022-07-01T12:21:02;97961.25;;;19.79;54.28
26083;BME280;13848;49.018;12.078;2022-07-01T12:23:28;97962.34;;;19.88;54.51
26083;BME280;13848;49.018;12.078;2022-07-01T12:25:54;97951.41;;;19.73;55.18
26083;BME280;13848;49.018;12.078;2022-07-01T12:28:26;97950.59;;;19.72;55.01
26083;BME280;13848;49.018;12.078;2022-07-01T12:31:02;97955.50;;;19.75;54.81
26083;BME280;13848;49.018;12.078;2022-07-01T12:33:52;97954.41;;;19.97;54.08
26083;BME280;13848;49.018;12.078;2022-07-01T12:36:52;97957.16;;;19.76;53.83
26083;BME280;13848;49.018;12.078;2022-07-01T12:39:48;97914.97;;;19.36;54.30
26083;BME280;13848;49.018;12.078;2022-07-01T12:42:42;97942.38;;;19.82;53.44
26083;BME280;13848;49.018;12.078;2022-07-01T12:45:14;97970.81;;;19.81;53.76
26083;BME280;13848;49.018;12.078;2022-07-01T12:48:04;97922.94;;;19.38;54.62
26083;BME280;13848;49.018;12.078;2022-07-01T12:50:36;97957.69;;;19.63;53.78